Time;durP1;ratioP1;P1;durP2;ratioP2;P2;SDS_P1;SDS_P2;PMS_P1;PMS_P2;Temp;Humidity;BMP_temperature;BMP_pressure;BME280_temperature;BME280_humidity;BME280_pressure;Samples;Min_cycle;Max_cycle;Signal;HPM_P1;HPM_P2
2022/10/08 00:01:08;;;;;;;14.40;9.13;;;333.40;2329.60;;;;;;5052743;28;20029;-79
2022/10/08 00:03:37;;;;;;;18.55;7.20;;;333.40;2329.60;;;;;;5052902;28;20131;-75
2022/10/08 00:06:07;;;;;;;18.10;7.18;;;333.50;2329.60;;;;;;5052487;28;20017;-73
2022/10/08 00:08:35;;;;;;;10.43;7.13;;;333.50;2329.60;;;;;;5053037;28;20163;-75
2022/10/08 00:11:08;;;;;;;14.98;7.32;;;333.40;2329.60;;;;;;5052572;28;20017;-73
2022/10/08 00:13:39;;;;;;;12.95;6.70;;;333.40;2329.60;;;;;;5052949;28;20075;-75
2022/10/08 00:16:21;;;;;;;9.90;6.70;;;333.40;2329.60;;;;;;5052488;28;20222;-73
2022/10/08 00:18:47;;;;;;;12.40;8.07;;;333.50;2329.60;;;;;;5052318;28;20037;-73
2022/10/08 00:21:44;;;;;;;10.52;6.43;;;333.50;2329.60;;;;;;5052391;28;20013;-72
2022/10/08 00:24:14;;;;;;;14.43;7.90;;;333.50;2329.60;;;;;;5047829;28;20048;-73
2022/10/08 00:26:41;;;;;;;11.13;6.55;;;333.40;2329.60;;;;;;5025659;28;20506;-73
2022/10/08 00:29:08;;;;;;;14.82;7.00;;;333.50;2329.60;;;;;;5041140;28;20026;-73
2022/10/08 00:31:37;;;;;;;14.30;7.05;;;333.50;2329.60;;;;;;5014646;28;20483;-74
2022/10/08 00:34:09;;;;;;;14.73;8.57;;;333.50;2329.60;;;;;;5020338;28;20116;-73
2022/10/08 00:36:37;;;;;;;10.43;6.60;;;333.60;2329.60;;;;;;5017876;28;20021;-74
2022/10/08 00:39:16;;;;;;;14.68;7.40;;;333.50;2329.60;;;;;;5017904;28;20080;-73
2022/10/08 00:41:43;;;;;;;14.48;7.25;;;333.40;2329.60;;;;;;5021040;28;20021;-73
2022/10/08 00:44:46;;;;;;;12.27;8.35;;;333.40;2329.60;;;;;;5020130;28;20026;-73
2022/10/08 00:47:32;;;;;;;15.50;7.28;;;333.30;2329.60;;;;;;5014477;28;20026;-74
2022/10/08 00:50:34;;;;;;;15.93;7.50;;;333.30;2329.60;;;;;;5017097;28;20025;-74
2022/10/08 00:53:04;;;;;;;8.95;6.22;;;333.30;2329.60;;;;;;4998153;28;20018;-73
2022/10/08 00:55:31;;;;;;;17.92;7.35;;;333.40;2329.60;;;;;;5018050;28;20486;-73
2022/10/08 00:58:01;;;;;;;12.00;7.10;;;333.30;2329.60;;;;;;5014801;28;20090;-73
2022/10/08 01:00:28;;;;;;;13.45;8.15;;;333.30;2329.60;;;;;;5015999;28;20022;-74
2022/10/08 01:02:54;;;;;;;10.80;7.72;;;333.30;2329.60;;;;;;5014235;28;20050;-72
2022/10/08 01:05:48;;;;;;;11.07;7.47;;;333.30;2329.60;;;;;;5012044;28;20102;-73
2022/10/08 01:08:44;;;;;;;10.82;7.15;;;333.30;2329.60;;;;;;4957174;28;20203;-73
2022/10/08 01:11:15;;;;;;;11.68;7.60;;;333.20;2329.60;;;;;;4924059;28;20043;-73
2022/10/08 01:13:56;;;;;;;11.95;7.10;;;333.20;2329.60;;;;;;4959702;28;20058;-73
2022/10/08 01:16:53;;;;;;;16.30;7.32;;;333.20;2329.60;;;;;;4954102;28;20019;-73
2022/10/08 01:19:47;;;;;;;10.27;7.10;;;333.20;2329.60;;;;;;4959720;28;20042;-73
2022/10/08 01:22:35;;;;;;;8.57;6.80;;;333.20;2329.60;;;;;;4954566;28;20027;-74
2022/10/08 01:25:51;;;;;;;11.90;6.90;;;333.30;2329.60;;;;;;4953680;28;20142;-73
2022/10/08 01:28:32;;;;;;;10.73;6.90;;;333.10;2329.60;;;;;;4915622;29;20103;-74
2022/10/08 01:31:06;;;;;;;17.00;7.18;;;333.10;2329.60;;;;;;4915047;29;20092;-73
2022/10/08 01:33:51;;;;;;;13.40;7.18;;;333.00;2329.60;;;;;;4912869;29;20501;-73
2022/10/08 01:36:19;;;;;;;14.75;8.05;;;333.00;2329.60;;;;;;4915580;29;20434;-73
2022/10/08 01:38:50;;;;;;;15.13;7.78;;;333.00;2329.60;;;;;;4919262;29;20099;-74
2022/10/08 01:41:17;;;;;;;10.25;7.28;;;332.90;2329.60;;;;;;4921558;29;20494;-73
2022/10/08 01:43:48;;;;;;;11.85;7.07;;;332.90;2329.60;;;;;;4917712;29;20107;-75
2022/10/08 01:46:19;;;;;;;13.35;7.10;;;333.00;2329.60;;;;;;4933196;29;20162;-73
2022/10/08 01:48:48;;;;;;;12.07;6.65;;;333.10;2329.60;;;;;;4940667;29;20032;-73
2022/10/08 01:51:19;;;;;;;13.60;7.10;;;333.10;2329.60;;;;;;4935412;29;20055;-73
2022/10/08 01:53:48;;;;;;;11.35;7.88;;;333.10;2329.60;;;;;;4943253;29;20032;-74
2022/10/08 01:56:20;;;;;;;12.73;7.50;;;333.10;2329.60;;;;;;4940111;29;20042;-74
2022/10/08 01:58:54;;;;;;;16.48;8.55;;;333.10;2329.60;;;;;;4938083;29;20039;-76
2022/10/08 02:01:26;;;;;;;13.35;6.95;;;333.10;2329.60;;;;;;4944194;28;20499;-74
2022/10/08 02:06:42;;;;;;;13.13;7.70;;;333.00;2329.60;;;;;;5018410;28;20068;-73
2022/10/08 02:09:09;;;;;;;11.27;6.78;;;332.90;2329.60;;;;;;5021324;28;20025;-76
2022/10/08 02:11:35;;;;;;;16.50;7.82;;;332.90;2329.60;;;;;;5021404;28;20059;-74
2022/10/08 02:14:04;;;;;;;12.95;7.32;;;332.90;2329.60;;;;;;5019836;28;20021;-73
2022/10/08 02:16:32;;;;;;;8.70;6.05;;;332.80;2329.60;;;;;;5019881;28;20105;-73
2022/10/08 02:19:10;;;;;;;14.02;7.45;;;308.10;2304.00;;;;;;5022675;28;20038;-74
2022/10/08 02:21:39;;;;;;;11.43;6.90;;;332.90;2329.60;;;;;;5019179;28;20471;-74
2022/10/08 02:24:17;;;;;;;10.93;6.68;;;332.90;2329.60;;;;;;5014680;28;20101;-73
2022/10/08 02:26:53;;;;;;;10.77;6.72;;;332.90;2329.60;;;;;;5020015;28;20096;-74
2022/10/08 02:29:43;;;;;;;12.65;7.18;;;332.90;2329.60;;;;;;5020400;28;20018;-73
2022/10/08 02:32:22;;;;;;;12.18;7.22;;;332.90;2329.60;;;;;;4959041;28;20035;-74
2022/10/08 02:35:24;;;;;;;11.73;7.38;;;332.90;2329.60;;;;;;4956599;28;20085;-73
2022/10/08 02:37:59;;;;;;;11.80;7.07;;;332.90;2329.60;;;;;;4951903;28;20445;-74
2022/10/08 02:40:27;;;;;;;12.52;7.55;;;332.90;2329.60;;;;;;4956568;28;20085;-73
2022/10/08 02:42:58;;;;;;;11.65;7.22;;;333.00;2329.60;;;;;;4959269;28;20074;-75
2022/10/08 02:45:29;;;;;;;13.65;7.03;;;332.90;2329.60;;;;;;4958838;28;20023;-74
2022/10/08 02:48:13;;;;;;;11.13;7.07;;;333.00;2329.60;;;;;;4956453;28;20386;-73
2022/10/08 02:50:42;;;;;;;8.98;6.32;;;332.90;2329.60;;;;;;4953497;28;20516;-73
2022/10/08 02:53:13;;;;;;;16.60;6.82;;;333.00;2329.60;;;;;;4959219;28;20027;-74
2022/10/08 02:55:47;;;;;;;11.88;6.75;;;333.00;2329.60;;;;;;4956948;28;20094;-74
2022/10/08 02:58:13;;;;;;;12.70;7.10;;;333.00;2329.60;;;;;;4955790;28;20066;-75
2022/10/08 03:01:01;;;;;;;10.73;6.70;;;332.90;2329.60;;;;;;4957043;28;20047;-73
2022/10/08 03:03:39;;;;;;;9.45;6.85;;;333.00;2329.60;;;;;;4961116;28;20082;-73
2022/10/08 03:06:09;;;;;;;13.18;7.00;;;332.90;2329.60;;;;;;4955694;28;20020;-73
2022/10/08 03:08:39;;;;;;;11.73;7.00;;;332.90;2329.60;;;;;;4976552;28;20124;-74
2022/10/08 03:11:06;;;;;;;9.57;6.60;;;332.80;2329.60;;;;;;5016685;28;20021;-73
2022/10/08 03:13:43;;;;;;;10.80;6.97;;;332.90;2329.60;;;;;;5020118;28;20383;-73
2022/10/08 03:16:14;;;;;;;10.77;7.38;;;332.90;2329.60;;;;;;5013537;28;20092;-73
2022/10/08 03:18:41;;;;;;;8.45;6.32;;;332.80;2329.60;;;;;;5020882;28;20033;-74
2022/10/08 03:21:14;;;;;;;13.98;8.88;;;332.90;2329.60;;;;;;5016503;28;20079;-73
2022/10/08 03:23:40;;;;;;;10.15;7.53;;;332.90;2329.60;;;;;;5016046;28;20439;-73
2022/10/08 03:26:06;;;;;;;12.82;7.45;;;332.90;2329.60;;;;;;5015790;28;20057;-74
2022/10/08 03:28:32;;;;;;;14.45;6.45;;;332.90;2329.60;;;;;;5021657;28;20084;-74
2022/10/08 03:31:02;;;;;;;14.05;7.55;;;332.80;2329.60;;;;;;5015772;28;20025;-74
2022/10/08 03:33:27;;;;;;;15.60;8.10;;;308.10;2304.00;;;;;;5021323;28;20033;-74
2022/10/08 03:35:53;;;;;;;17.55;8.20;;;308.10;2304.00;;;;;;5018515;28;20018;-76
2022/10/08 03:38:19;;;;;;;15.82;8.60;;;308.10;2304.00;;;;;;5018455;28;20034;-73
2022/10/08 03:40:54;;;;;;;12.35;7.93;;;308.10;2304.00;;;;;;5018250;28;20364;-73
2022/10/08 03:43:20;;;;;;;14.80;8.02;;;308.10;2304.00;;;;;;5015509;28;20018;-73
2022/10/08 03:45:53;;;;;;;12.43;7.35;;;308.10;2304.00;;;;;;4995349;28;20034;-73
2022/10/08 03:48:20;;;;;;;13.80;8.45;;;308.10;2304.00;;;;;;5012769;28;20029;-74
2022/10/08 03:51:03;;;;;;;17.83;8.75;;;308.10;2304.00;;;;;;5012825;28;20026;-73
2022/10/08 03:53:32;;;;;;;16.92;8.10;;;308.10;2304.00;;;;;;5018168;28;20084;-73
2022/10/08 03:56:02;;;;;;;12.10;7.88;;;308.10;2304.00;;;;;;4997686;28;20041;-74
2022/10/08 03:58:29;;;;;;;16.83;9.02;;;308.10;2304.00;;;;;;5012625;28;20104;-74
2022/10/08 04:00:57;;;;;;;19.50;8.95;;;308.00;2304.00;;;;;;5015207;28;20022;-73
2022/10/08 04:03:24;;;;;;;12.02;8.30;;;308.00;2304.00;;;;;;5012547;28;20195;-74
2022/10/08 04:05:50;;;;;;;12.90;8.77;;;307.90;2304.00;;;;;;5012211;28;20017;-73
2022/10/08 04:08:15;;;;;;;16.58;9.38;;;307.90;2304.00;;;;;;5016008;28;20026;-73
2022/10/08 04:10:42;;;;;;;13.00;8.93;;;307.90;2304.00;;;;;;5015722;28;20026;-74
2022/10/08 04:13:07;;;;;;;12.77;7.55;;;307.90;2304.00;;;;;;5021089;28;20034;-74
2022/10/08 04:15:33;;;;;;;12.90;8.75;;;307.90;2304.00;;;;;;5020720;28;20024;-73
2022/10/08 04:17:59;;;;;;;12.75;8.32;;;307.80;2304.00;;;;;;5015020;28;20056;-74
2022/10/08 04:20:25;;;;;;;17.88;8.93;;;307.80;2304.00;;;;;;5012396;28;20053;-73
2022/10/08 04:22:50;;;;;;;13.20;8.63;;;307.70;2304.00;;;;;;5014656;28;20076;-73
2022/10/08 04:25:16;;;;;;;14.38;8.13;;;307.80;2304.00;;;;;;5017737;28;20371;-73
2022/10/08 04:27:42;;;;;;;14.50;8.60;;;307.80;2304.00;;;;;;5019227;28;20396;-73
2022/10/08 04:30:08;;;;;;;14.38;8.75;;;307.70;2304.00;;;;;;5012938;28;20029;-74
2022/10/08 04:32:34;;;;;;;18.10;8.55;;;307.70;2304.00;;;;;;5015264;28;20026;-73
2022/10/08 04:35:00;;;;;;;18.60;9.43;;;307.80;2304.00;;;;;;5018339;28;20071;-73
2022/10/08 04:37:26;;;;;;;15.65;9.10;;;307.80;2304.00;;;;;;5015938;28;20113;-73
2022/10/08 04:39:51;;;;;;;16.08;8.82;;;307.90;2304.00;;;;;;5019944;28;20033;-73
2022/10/08 04:42:17;;;;;;;17.35;8.85;;;307.80;2304.00;;;;;;4998605;28;20049;-74
2022/10/08 04:44:43;;;;;;;16.48;9.95;;;307.80;2304.00;;;;;;5014502;28;20087;-73
2022/10/08 04:47:08;;;;;;;12.02;7.95;;;307.90;2304.00;;;;;;5014544;28;20017;-72
2022/10/08 04:49:34;;;;;;;17.05;8.10;;;307.80;2304.00;;;;;;5011715;28;20049;-72
2022/10/08 04:52:00;;;;;;;12.48;8.10;;;307.80;2304.00;;;;;;5015887;28;20034;-72
2022/10/08 04:54:26;;;;;;;16.17;8.07;;;307.80;2304.00;;;;;;5015528;28;20025;-74
2022/10/08 04:56:52;;;;;;;14.60;7.75;;;307.80;2304.00;;;;;;5014310;28;20471;-72
2022/10/08 04:59:17;;;;;;;14.13;7.57;;;307.80;2304.00;;;;;;5014375;28;20483;-74
2022/10/08 05:01:43;;;;;;;12.35;7.55;;;307.80;2304.00;;;;;;5014537;28;20032;-72
2022/10/08 05:04:09;;;;;;;24.52;8.55;;;307.80;2304.00;;;;;;5011340;28;20050;-74
2022/10/08 05:06:34;;;;;;;15.63;8.38;;;307.70;2304.00;;;;;;5011955;28;20014;-73
2022/10/08 05:09:02;;;;;;;14.65;8.38;;;307.70;2304.00;;;;;;5014163;28;20040;-74
2022/10/08 05:11:29;;;;;;;13.57;8.45;;;307.70;2304.00;;;;;;5019342;28;20013;-73
2022/10/08 05:13:56;;;;;;;12.65;7.93;;;307.40;2304.00;;;;;;5023162;28;20021;-74
2022/10/08 05:16:23;;;;;;;16.25;8.38;;;307.70;2304.00;;;;;;5025612;28;20109;-73
2022/10/08 05:18:50;;;;;;;11.52;7.07;;;307.70;2304.00;;;;;;5021031;28;20178;-73
2022/10/08 05:21:28;;;;;;;13.45;8.30;;;307.80;2304.00;;;;;;5022669;28;20022;-77
2022/10/08 05:24:02;;;;;;;12.38;7.80;;;307.80;2304.00;;;;;;5026624;28;20018;-74
2022/10/08 05:26:31;;;;;;;14.60;8.65;;;307.90;2304.00;;;;;;5016858;28;20021;-73
2022/10/08 05:28:58;;;;;;;16.10;7.82;;;307.90;2304.00;;;;;;5023884;28;20021;-76
2022/10/08 05:31:26;;;;;;;17.48;8.75;;;308.00;2304.00;;;;;;5035356;28;20352;-75
2022/10/08 05:33:52;;;;;;;15.75;8.68;;;308.10;2304.00;;;;;;5055673;28;20040;-74
2022/10/08 05:36:27;;;;;;;15.75;8.73;;;308.10;2304.00;;;;;;5056078;28;20017;-77
2022/10/08 05:38:55;;;;;;;12.98;8.45;;;308.10;2304.00;;;;;;5028394;28;20116;-79
2022/10/08 05:41:30;;;;;;;16.27;7.82;;;332.80;2329.60;;;;;;5002277;28;20379;-79
2022/10/08 05:43:57;;;;;;;17.95;8.73;;;332.80;2329.60;;;;;;5019602;28;20034;-79
2022/10/08 05:46:24;;;;;;;12.60;7.53;;;332.80;2329.60;;;;;;5024554;28;20029;-74
2022/10/08 05:48:59;;;;;;;16.98;8.02;;;332.90;2329.60;;;;;;5055720;28;20017;-74
2022/10/08 05:51:26;;;;;;;10.35;7.80;;;332.90;2329.60;;;;;;5053069;28;20064;-81
2022/10/08 05:53:53;;;;;;;12.45;8.68;;;332.90;2329.60;;;;;;5044148;28;20032;-74
2022/10/08 05:56:21;;;;;;;16.27;8.35;;;333.00;2329.60;;;;;;5054981;28;20094;-75
2022/10/08 05:58:48;;;;;;;20.40;9.65;;;333.10;2329.60;;;;;;5042300;28;20040;-74
2022/10/08 06:01:15;;;;;;;17.58;9.07;;;333.30;2329.60;;;;;;5055536;28;20032;-83
2022/10/08 06:03:41;;;;;;;13.57;8.85;;;333.40;2329.60;;;;;;5054937;28;20130;-76
2022/10/08 06:06:10;;;;;;;14.90;8.98;;;333.40;2329.60;;;;;;5055420;28;20024;-74
2022/10/08 06:08:36;;;;;;;16.25;10.00;;;333.60;2329.60;;;;;;5055159;28;20025;-77
2022/10/08 06:11:03;;;;;;;21.85;10.70;;;333.70;2329.60;;;;;;5055494;28;20369;-75
2022/10/08 06:13:30;;;;;;;21.10;10.88;;;358.40;2329.60;;;;;;5055213;28;20074;-74
2022/10/08 06:15:57;;;;;;;15.23;10.60;;;358.70;2329.60;;;;;;5055617;28;20124;-74
2022/10/08 06:18:24;;;;;;;17.50;10.43;;;358.70;2329.60;;;;;;5041472;28;20483;-77
2022/10/08 06:20:50;;;;;;;23.38;11.07;;;358.80;2329.60;;;;;;5048806;28;20025;-75
2022/10/08 06:23:15;;;;;;;13.15;9.32;;;358.90;2329.60;;;;;;5048419;28;20079;-75
2022/10/08 06:25:41;;;;;;;19.50;10.65;;;359.00;2329.60;;;;;;5041303;28;20023;-76
2022/10/08 06:28:07;;;;;;;17.58;10.25;;;359.20;2329.60;;;;;;5045322;28;20026;-74
2022/10/08 06:30:33;;;;;;;14.40;9.32;;;359.30;2329.60;;;;;;5051390;28;20028;-75
2022/10/08 06:32:59;;;;;;;19.50;10.18;;;384.00;2329.60;;;;;;5037200;28;20037;-74
2022/10/08 06:35:24;;;;;;;15.00;9.27;;;384.20;2329.60;;;;;;5054047;28;20064;-74
2022/10/08 06:37:50;;;;;;;13.80;9.55;;;384.40;2329.60;;;;;;5041470;28;20393;-74
2022/10/08 06:40:16;;;;;;;13.25;9.50;;;384.50;2329.60;;;;;;5042006;28;20389;-74
2022/10/08 06:42:42;;;;;;;14.73;9.48;;;384.60;2329.60;;;;;;5043336;28;20017;-74
2022/10/08 06:45:08;;;;;;;15.32;10.57;;;384.70;2329.60;;;;;;5054373;28;20475;-73
2022/10/08 06:47:34;;;;;;;16.60;10.13;;;384.90;2329.60;;;;;;5054673;28;20009;-74
2022/10/08 06:50:00;;;;;;;15.82;9.65;;;409.70;2355.20;;;;;;5054848;28;20033;-75
2022/10/08 06:52:26;;;;;;;14.73;9.52;;;409.70;2355.20;;;;;;5045258;28;20036;-76
2022/10/08 06:54:52;;;;;;;17.08;9.68;;;409.90;2355.20;;;;;;5026757;28;20030;-74
2022/10/08 06:57:18;;;;;;;13.48;9.73;;;410.00;2355.20;;;;;;5026096;28;20030;-75
2022/10/08 06:59:44;;;;;;;15.15;8.85;;;410.20;2355.20;;;;;;5020886;28;20052;-74
2022/10/08 07:02:10;;;;;;;14.70;8.85;;;410.30;2355.20;;;;;;5036925;28;20057;-75
2022/10/08 07:04:36;;;;;;;12.60;8.38;;;410.50;2355.20;;;;;;5054615;28;20072;-77
2022/10/08 07:07:02;;;;;;;18.27;9.30;;;435.20;2355.20;;;;;;5054289;28;20068;-74
2022/10/08 07:09:28;;;;;;;14.43;8.10;;;435.30;2355.20;;;;;;5054107;28;20078;-75
2022/10/08 07:11:53;;;;;;;13.70;8.52;;;435.50;2355.20;;;;;;5048878;28;20029;-76
2022/10/08 07:14:19;;;;;;;12.23;7.03;;;435.60;2355.20;;;;;;5045155;28;20029;-74
2022/10/08 07:16:46;;;;;;;12.50;6.65;;;435.70;2355.20;;;;;;5054007;28;20035;-74
2022/10/08 07:19:12;;;;;;;20.05;8.73;;;435.80;2355.20;;;;;;5054042;28;20029;-75
2022/10/08 07:21:39;;;;;;;12.70;7.65;;;435.90;2355.20;;;;;;5053911;28;20494;-74
2022/10/08 07:24:05;;;;;;;10.55;6.88;;;435.90;2355.20;;;;;;5053676;28;20172;-75
2022/10/08 07:26:33;;;;;;;12.40;6.57;;;436.00;2355.20;;;;;;5054045;28;20021;-74
2022/10/08 07:29:05;;;;;;;10.75;6.65;;;436.10;2355.20;;;;;;5047893;28;20029;-79
2022/10/08 07:31:34;;;;;;;10.32;6.22;;;460.80;2380.80;;;;;;5025266;28;20100;-76
2022/10/08 07:34:01;;;;;;;14.00;7.07;;;460.80;2380.80;;;;;;5027824;28;20034;-82
2022/10/08 07:36:28;;;;;;;9.30;6.25;;;460.80;2380.80;;;;;;5027892;28;20026;-75
2022/10/08 07:38:58;;;;;;;15.30;7.28;;;460.90;2380.80;;;;;;5049249;28;20053;-74
2022/10/08 07:41:25;;;;;;;9.98;7.28;;;461.00;2380.80;;;;;;5041494;28;20029;-76
2022/10/08 07:43:53;;;;;;;15.23;8.43;;;461.10;2380.80;;;;;;5032965;28;20049;-77
2022/10/08 07:46:20;;;;;;;13.52;5.88;;;461.10;2380.80;;;;;;5021784;28;20053;-75
2022/10/08 07:48:46;;;;;;;12.50;6.95;;;461.20;2380.80;;;;;;5003662;28;20022;-77
2022/10/08 07:51:18;;;;;;;13.02;5.88;;;461.20;2380.80;;;;;;5015660;28;20028;-75
2022/10/08 07:53:44;;;;;;;14.48;5.95;;;461.40;2380.80;;;;;;5007979;28;20048;-74
2022/10/08 07:56:12;;;;;;;10.90;6.15;;;461.40;2380.80;;;;;;5037429;28;20025;-74
2022/10/08 07:58:38;;;;;;;12.57;6.78;;;461.50;2380.80;;;;;;5042359;28;20561;-73
2022/10/08 08:01:06;;;;;;;14.57;5.40;;;461.50;2380.80;;;;;;5024082;28;20072;-74
2022/10/08 08:03:33;;;;;;;10.18;5.55;;;461.70;2380.80;;;;;;5016499;28;20049;-74
2022/10/08 08:06:08;;;;;;;10.77;6.07;;;461.70;2380.80;;;;;;5025030;28;20018;-74
2022/10/08 08:08:35;;;;;;;11.38;6.20;;;486.40;2380.80;;;;;;5013882;28;20141;-76
2022/10/08 08:11:03;;;;;;;18.35;6.45;;;486.50;2380.80;;;;;;5019206;28;20018;-74
2022/10/08 08:13:30;;;;;;;12.52;6.18;;;486.50;2380.80;;;;;;5023780;28;20105;-73
2022/10/08 08:15:57;;;;;;;14.90;6.53;;;486.60;2380.80;;;;;;5015758;28;20122;-74
2022/10/08 08:18:26;;;;;;;16.45;7.20;;;486.60;2380.80;;;;;;5021760;28;20060;-74
2022/10/08 08:21:04;;;;;;;13.23;6.20;;;486.70;2380.80;;;;;;5030211;28;20021;-74
2022/10/08 08:23:34;;;;;;;12.95;6.53;;;486.80;2380.80;;;;;;5038672;28;20053;-77
2022/10/08 08:26:02;;;;;;;13.30;6.78;;;486.80;2380.80;;;;;;5052918;28;20070;-74
2022/10/08 08:28:28;;;;;;;11.40;6.05;;;486.90;2380.80;;;;;;5052728;28;20052;-74
2022/10/08 08:30:56;;;;;;;11.75;6.47;;;487.00;2380.80;;;;;;5045205;28;20065;-74
2022/10/08 08:33:22;;;;;;;12.35;6.38;;;487.10;2380.80;;;;;;5032447;28;20025;-74
2022/10/08 08:35:51;;;;;;;24.55;8.77;;;487.20;2380.80;;;;;;5052175;28;20032;-74
2022/10/08 08:38:18;;;;;;;8.65;6.55;;;487.20;2380.80;;;;;;5052212;28;20021;-74
2022/10/08 08:40:44;;;;;;;13.48;6.22;;;487.30;2380.80;;;;;;5046258;28;20382;-74
2022/10/08 08:43:10;;;;;;;11.93;6.07;;;487.30;2380.80;;;;;;5044638;28;20056;-74
2022/10/08 08:45:36;;;;;;;11.40;6.85;;;487.30;2380.80;;;;;;5052398;28;20060;-74
2022/10/08 08:48:25;;;;;;;10.50;6.05;;;512.10;2380.80;;;;;;5052028;28;20052;-75
2022/10/08 08:50:55;;;;;;;12.77;6.80;;;512.20;2380.80;;;;;;5051981;28;20023;-74
2022/10/08 08:53:22;;;;;;;35.95;9.68;;;512.30;2380.80;;;;;;5052298;28;20029;-74
2022/10/08 08:55:58;;;;;;;13.80;6.22;;;512.40;2380.80;;;;;;5051865;28;20498;-74
2022/10/08 08:58:40;;;;;;;9.82;6.50;;;512.50;2380.80;;;;;;5051928;28;20024;-75
2022/10/08 09:01:09;;;;;;;9.98;6.40;;;512.70;2380.80;;;;;;5052008;28;20037;-75
2022/10/08 09:03:42;;;;;;;8.63;6.13;;;512.70;2380.80;;;;;;5051878;28;20092;-75
2022/10/08 09:06:14;;;;;;;10.55;6.53;;;512.80;2380.80;;;;;;5051884;28;20013;-76
2022/10/08 09:08:46;;;;;;;11.70;6.30;;;512.90;2380.80;;;;;;5052130;28;20083;-75
2022/10/08 09:11:15;;;;;;;9.70;6.15;;;512.90;2380.80;;;;;;5051621;28;20009;-75
2022/10/08 09:13:49;;;;;;;9.85;6.32;;;537.60;2406.40;;;;;;5052023;28;20564;-75
2022/10/08 09:16:16;;;;;;;11.77;5.70;;;537.70;2406.40;;;;;;5047152;28;20013;-75
2022/10/08 09:18:47;;;;;;;14.90;6.68;;;537.90;2406.40;;;;;;5024755;28;20036;-75
2022/10/08 09:21:14;;;;;;;9.13;5.50;;;538.00;2406.40;;;;;;5024393;28;20034;-75
2022/10/08 09:23:40;;;;;;;14.73;5.68;;;538.20;2406.40;;;;;;5016847;28;20048;-75
2022/10/08 09:26:22;;;;;;;14.30;6.32;;;538.30;2406.40;;;;;;5018230;28;20491;-76
2022/10/08 09:28:56;;;;;;;8.00;5.10;;;538.50;2406.40;;;;;;5014063;28;20078;-75
2022/10/08 09:31:25;;;;;;;9.25;5.32;;;563.20;2432.00;;;;;;5018079;28;20025;-75
2022/10/08 09:34:09;;;;;;;14.90;5.97;;;563.20;2432.00;;;;;;5051905;28;20502;-76
2022/10/08 09:36:53;;;;;;;11.23;5.80;;;563.20;2252.80;;;;;;5051600;28;20028;-75
2022/10/08 09:39:25;;;;;;;9.20;5.25;;;563.50;2432.00;;;;;;5033660;28;20095;-75
2022/10/08 09:42:05;;;;;;;13.30;6.13;;;563.50;2252.80;;;;;;5037525;28;20045;-76
2022/10/08 09:44:43;;;;;;;9.40;5.55;;;563.60;2304.00;;;;;;5051489;28;20083;-75
2022/10/08 09:47:15;;;;;;;11.02;5.32;;;563.50;2150.40;;;;;;5014277;28;20072;-76
2022/10/08 09:49:41;;;;;;;13.68;5.50;;;563.60;2150.40;;;;;;5016844;28;20104;-76
2022/10/08 09:52:18;;;;;;;13.48;5.22;;;563.70;2176.00;;;;;;5011545;28;20084;-76
2022/10/08 09:54:51;;;;;;;9.10;5.25;;;563.70;2124.80;;;;;;5032905;28;20059;-75
2022/10/08 09:57:19;;;;;;;17.70;5.97;;;563.90;2176.00;;;;;;5051478;28;20375;-75
2022/10/08 09:59:52;;;;;;;11.75;5.60;;;564.00;2099.20;;;;;;5051054;28;20033;-75
2022/10/08 10:02:35;;;;;;;9.82;5.50;;;564.10;2073.60;;;;;;5051453;28;20071;-80
2022/10/08 10:05:05;;;;;;;10.77;5.15;;;564.10;2124.80;;;;;;5051250;28;20037;-80
2022/10/08 10:07:40;;;;;;;8.02;5.03;;;588.90;2022.40;;;;;;5054759;28;20858;-75
2022/10/08 10:10:20;;;;;;;12.32;5.15;;;588.90;1971.20;;;;;;5055126;28;20019;-75
2022/10/08 10:12:51;;;;;;;12.60;5.60;;;588.90;2022.40;;;;;;5036944;28;20364;-75
2022/10/08 10:15:28;;;;;;;14.13;5.47;;;589.10;2022.40;;;;;;5043218;28;20037;-74
2022/10/08 10:18:03;;;;;;;12.02;5.30;;;589.30;2048.00;;;;;;5017343;28;20479;-74
2022/10/08 10:20:51;;;;;;;13.82;6.30;;;589.30;1945.60;;;;;;5022560;28;20030;-74
2022/10/08 10:23:48;;;;;;;9.82;6.00;;;589.50;2022.40;;;;;;5019677;28;20018;-74
2022/10/08 10:26:20;;;;;;;23.05;7.40;;;589.70;1945.60;;;;;;5021232;28;20022;-75
2022/10/08 10:29:01;;;;;;;8.80;4.85;;;589.70;1920.00;;;;;;5014777;28;20030;-75
2022/10/08 10:31:32;;;;;;;17.83;5.70;;;614.50;1945.60;;;;;;5049417;28;20029;-76
2022/10/08 10:34:00;;;;;;;19.73;5.00;;;614.60;1894.40;;;;;;5044813;28;20479;-75
2022/10/08 10:36:31;;;;;;;7.63;5.28;;;614.60;1817.60;;;;;;5050818;28;20017;-75
2022/10/08 10:39:37;;;;;;;10.90;4.93;;;614.70;1843.20;;;;;;5054394;28;20517;-75
2022/10/08 10:42:33;;;;;;;8.43;5.15;;;614.60;1843.20;;;;;;4940907;29;20498;-79
2022/10/08 10:45:17;;;;;;;14.18;4.60;;;614.70;1792.00;;;;;;4954438;29;20087;-75
2022/10/08 10:47:43;;;;;;;10.20;6.03;;;614.60;1766.40;;;;;;4942653;29;20035;-75
2022/10/08 10:50:13;;;;;;;8.93;4.63;;;614.80;1817.60;;;;;;4954288;29;20035;-75
2022/10/08 10:53:03;;;;;;;10.68;5.53;;;615.00;1766.40;;;;;;4948471;29;20115;-75
2022/10/08 10:55:36;;;;;;;10.82;5.25;;;615.00;1715.20;;;;;;4949916;29;20055;-82
2022/10/08 10:58:49;;;;;;;11.63;5.63;;;615.00;1740.80;;;;;;4945745;29;20044;-75
2022/10/08 11:01:43;;;;;;;10.50;6.57;;;615.10;1740.80;;;;;;4866072;29;20507;-74
2022/10/08 11:04:12;;;;;;;13.57;4.60;;;615.30;1740.80;;;;;;4878034;29;20061;-75
2022/10/08 11:06:43;;;;;;;8.52;4.55;;;615.20;1638.40;;;;;;4878280;29;20021;-76
2022/10/08 11:09:20;;;;;;;10.43;4.38;;;640.00;1868.80;;;;;;4878124;29;20085;-75
2022/10/08 11:11:52;;;;;;;6.78;4.47;;;640.00;1612.80;;;;;;4875945;29;20041;-76
2022/10/08 11:15:05;;;;;;;7.88;4.57;;;640.00;1612.80;;;;;;4877315;29;20021;-75
2022/10/08 11:17:49;;;;;;;13.48;4.05;;;615.30;1561.60;;;;;;4842198;29;20077;-75
2022/10/08 11:20:26;;;;;;;8.52;4.05;;;640.00;1561.60;;;;;;4886221;29;20046;-76
2022/10/08 11:22:54;;;;;;;13.40;4.97;;;640.10;1561.60;;;;;;4884262;29;20077;-75
2022/10/08 11:25:47;;;;;;;9.32;4.28;;;640.20;1561.60;;;;;;4879633;29;20048;-75
2022/10/08 11:28:22;;;;;;;8.18;4.22;;;640.50;1561.60;;;;;;4877719;29;20112;-76
2022/10/08 11:31:06;;;;;;;31.77;7.30;;;640.50;1561.60;;;;;;4877698;29;20124;-75
2022/10/08 11:33:32;;;;;;;8.15;4.28;;;640.80;1536.00;;;;;;4878096;29;20231;-75
2022/10/08 11:36:31;;;;;;;16.65;4.78;;;640.90;1536.00;;;;;;4877847;29;20880;-75
2022/10/08 11:39:28;;;;;;;9.23;4.75;;;665.60;1510.40;;;;;;4953329;29;20050;-76
2022/10/08 11:42:06;;;;;;;9.85;4.28;;;665.60;1536.00;;;;;;4955156;28;20036;-82
2022/10/08 11:44:32;;;;;;;11.40;4.22;;;640.90;1484.80;;;;;;4972758;28;20495;-77
2022/10/08 11:47:35;;;;;;;10.73;4.38;;;640.90;1484.80;;;;;;4972455;28;20591;-76
2022/10/08 11:50:04;;;;;;;10.35;4.75;;;640.90;1459.20;;;;;;5033269;28;20017;-77
2022/10/08 11:52:31;;;;;;;6.15;3.88;;;665.70;1510.40;;;;;;5022798;28;20026;-76
2022/10/08 11:55:03;;;;;;;11.13;4.15;;;665.60;1484.80;;;;;;4998503;28;20042;-78
2022/10/08 11:57:34;;;;;;;10.98;5.13;;;665.70;1459.20;;;;;;4997609;28;20057;-75
2022/10/08 12:00:23;;;;;;;7.47;4.65;;;665.70;1484.80;;;;;;4998887;28;20026;-75
2022/10/08 12:02:53;;;;;;;11.23;4.63;;;665.70;1484.80;;;;;;5008649;28;20048;-77
2022/10/08 12:05:22;;;;;;;8.85;4.38;;;666.00;1484.80;;;;;;5015820;28;20037;-76
2022/10/08 12:07:54;;;;;;;8.68;4.60;;;666.00;1459.20;;;;;;5017872;28;20048;-77
2022/10/08 12:10:22;;;;;;;14.02;4.55;;;665.90;1459.20;;;;;;5023373;28;20467;-75
2022/10/08 12:12:48;;;;;;;8.60;3.97;;;666.00;1459.20;;;;;;5015241;28;20029;-75
2022/10/08 12:15:38;;;;;;;7.32;4.78;;;666.20;1433.60;;;;;;5015155;28;20028;-77
2022/10/08 12:18:09;;;;;;;10.43;4.22;;;666.20;1459.20;;;;;;5015747;28;20077;-76
2022/10/08 12:20:40;;;;;;;11.60;4.53;;;666.10;1459.20;;;;;;5019087;28;20033;-76
2022/10/08 12:23:19;;;;;;;7.95;4.25;;;666.00;1433.60;;;;;;5015861;28;20021;-81
2022/10/08 12:25:45;;;;;;;12.20;4.63;;;665.90;1433.60;;;;;;5017915;28;20029;-76
2022/10/08 12:28:20;;;;;;;14.80;4.22;;;665.70;1408.00;;;;;;5014913;28;20024;-77
2022/10/08 12:30:54;;;;;;;8.60;4.05;;;665.80;1433.60;;;;;;4997170;28;20372;-80
2022/10/08 12:33:21;;;;;;;14.00;4.65;;;666.00;1433.60;;;;;;5012279;28;20026;-76
2022/10/08 12:36:09;;;;;;;9.20;4.47;;;666.00;1408.00;;;;;;5010734;28;20128;-76